sensor_id;sensor_type;location;lat;lon;timestamp;P1;durP1;ratioP1;P2;durP2;ratioP2
16320;SDS011;8269;50.990;4.494;2023-02-11T00:01:38;22.47;;;12.23;;
16320;SDS011;8269;50.990;4.494;2023-02-11T00:04:04;20.43;;;12.17;;
16320;SDS011;8269;50.990;4.494;2023-02-11T00:06:31;20.83;;;12.07;;
16320;SDS011;8269;50.990;4.494;2023-02-11T00:08:58;21.80;;;12.67;;
16320;SDS011;8269;50.990;4.494;2023-02-11T00:11:24;22.67;;;12.30;;
16320;SDS011;8269;50.990;4.494;2023-02-11T00:13:54;19.87;;;10.33;;
16320;SDS011;8269;50.990;4.494;2023-02-11T00:16:20;20.67;;;11.83;;
16320;SDS011;8269;50.990;4.494;2023-02-11T00:18:46;18.53;;;11.73;;
16320;SDS011;8269;50.990;4.494;2023-02-11T00:21:13;19.43;;;10.67;;
16320;SDS011;8269;50.990;4.494;2023-02-11T00:23:41;17.93;;;10.03;;
16320;SDS011;8269;50.990;4.494;2023-02-11T00:26:15;19.67;;;11.43;;
16320;SDS011;8269;50.990;4.494;2023-02-11T00:28:46;20.30;;;10.97;;
16320;SDS011;8269;50.990;4.494;2023-02-11T00:31:13;18.07;;;11.00;;
16320;SDS011;8269;50.990;4.494;2023-02-11T00:33:39;18.93;;;11.03;;
16320;SDS011;8269;50.990;4.494;2023-02-11T00:36:06;18.93;;;11.20;;
16320;SDS011;8269;50.990;4.494;2023-02-11T00:38:35;19.40;;;10.83;;
16320;SDS011;8269;50.990;4.494;2023-02-11T00:41:01;20.87;;;11.30;;
16320;SDS011;8269;50.990;4.494;2023-02-11T00:43:26;20.37;;;11.67;;
16320;SDS011;8269;50.990;4.494;2023-02-11T00:45:52;19.63;;;11.37;;
16320;SDS011;8269;50.990;4.494;2023-02-11T00:48:18;18.93;;;10.33;;
16320;SDS011;8269;50.990;4.494;2023-02-11T00:50:44;24.00;;;11.27;;
16320;SDS011;8269;50.990;4.494;2023-02-11T00:53:10;21.47;;;11.27;;
16320;SDS011;8269;50.990;4.494;2023-02-11T00:55:36;20.67;;;11.07;;
16320;SDS011;8269;50.990;4.494;2023-02-11T00:58:01;20.17;;;10.40;;
16320;SDS011;8269;50.990;4.494;2023-02-11T01:00:27;17.33;;;10.87;;
16320;SDS011;8269;50.990;4.494;2023-02-11T01:02:53;21.00;;;10.17;;
16320;SDS011;8269;50.990;4.494;2023-02-11T01:05:19;17.90;;;10.20;;
16320;SDS011;8269;50.990;4.494;2023-02-11T01:07:45;23.87;;;10.63;;
16320;SDS011;8269;50.990;4.494;2023-02-11T01:10:10;21.97;;;10.33;;
16320;SDS011;8269;50.990;4.494;2023-02-11T01:12:36;15.20;;;9.27;;
16320;SDS011;8269;50.990;4.494;2023-02-11T01:15:03;20.90;;;9.40;;
16320;SDS011;8269;50.990;4.494;2023-02-11T01:17:32;21.33;;;10.50;;
16320;SDS011;8269;50.990;4.494;2023-02-11T01:19:58;21.63;;;9.70;;
16320;SDS011;8269;50.990;4.494;2023-02-11T01:22:23;19.07;;;10.10;;
16320;SDS011;8269;50.990;4.494;2023-02-11T01:24:49;21.27;;;10.40;;
16320;SDS011;8269;50.990;4.494;2023-02-11T01:27:15;17.73;;;9.27;;
16320;SDS011;8269;50.990;4.494;2023-02-11T01:29:40;20.67;;;9.97;;
16320;SDS011;8269;50.990;4.494;2023-02-11T01:32:06;20.23;;;10.50;;
16320;SDS011;8269;50.990;4.494;2023-02-11T01:34:31;18.70;;;10.13;;
16320;SDS011;8269;50.990;4.494;2023-02-11T01:36:57;18.73;;;10.20;;
16320;SDS011;8269;50.990;4.494;2023-02-11T01:39:24;17.80;;;9.80;;
16320;SDS011;8269;50.990;4.494;2023-02-11T01:41:50;16.87;;;9.43;;
16320;SDS011;8269;50.990;4.494;2023-02-11T01:47:00;17.27;;;9.70;;
16320;SDS011;8269;50.990;4.494;2023-02-11T01:52:00;21.70;;;10.03;;
16320;SDS011;8269;50.990;4.494;2023-02-11T01:54:47;18.40;;;10.50;;
16320;SDS011;8269;50.990;4.494;2023-02-11T01:57:35;22.37;;;9.90;;
16320;SDS011;8269;50.990;4.494;2023-02-11T02:00:09;19.10;;;9.80;;
16320;SDS011;8269;50.990;4.494;2023-02-11T02:10:49;24.70;;;10.97;;
16320;SDS011;8269;50.990;4.494;2023-02-11T02:13:20;21.90;;;10.87;;
16320;SDS011;8269;50.990;4.494;2023-02-11T02:15:50;23.03;;;10.43;;
16320;SDS011;8269;50.990;4.494;2023-02-11T02:26:53;21.40;;;10.33;;
16320;SDS011;8269;50.990;4.494;2023-02-11T02:32:25;16.47;;;9.83;;
16320;SDS011;8269;50.990;4.494;2023-02-11T02:35:08;20.57;;;9.80;;
16320;SDS011;8269;50.990;4.494;2023-02-11T02:37:46;21.53;;;9.37;;
16320;SDS011;8269;50.990;4.494;2023-02-11T02:40:33;20.53;;;10.03;;
16320;SDS011;8269;50.990;4.494;2023-02-11T02:43:07;21.20;;;10.17;;
16320;SDS011;8269;50.990;4.494;2023-02-11T02:45:34;18.23;;;9.93;;
16320;SDS011;8269;50.990;4.494;2023-02-11T02:48:00;22.60;;;10.33;;
16320;SDS011;8269;50.990;4.494;2023-02-11T02:50:27;19.67;;;10.77;;
16320;SDS011;8269;50.990;4.494;2023-02-11T02:53:22;17.57;;;9.90;;
16320;SDS011;8269;50.990;4.494;2023-02-11T02:58:41;24.37;;;10.47;;
16320;SDS011;8269;50.990;4.494;2023-02-11T03:01:30;18.27;;;9.97;;
16320;SDS011;8269;50.990;4.494;2023-02-11T03:09:39;17.57;;;9.23;;
16320;SDS011;8269;50.990;4.494;2023-02-11T03:12:14;20.40;;;9.70;;
16320;SDS011;8269;50.990;4.494;2023-02-11T03:14:41;20.43;;;9.83;;
16320;SDS011;8269;50.990;4.494;2023-02-11T03:17:08;18.63;;;10.00;;
16320;SDS011;8269;50.990;4.494;2023-02-11T03:19:38;18.77;;;10.73;;
16320;SDS011;8269;50.990;4.494;2023-02-11T03:22:10;20.57;;;10.43;;
16320;SDS011;8269;50.990;4.494;2023-02-11T03:24:41;22.67;;;10.10;;
16320;SDS011;8269;50.990;4.494;2023-02-11T03:32:36;17.53;;;9.40;;
16320;SDS011;8269;50.990;4.494;2023-02-11T03:37:54;21.63;;;10.73;;
16320;SDS011;8269;50.990;4.494;2023-02-11T03:40:27;20.83;;;10.20;;
16320;SDS011;8269;50.990;4.494;2023-02-11T03:43:18;20.73;;;10.07;;
16320;SDS011;8269;50.990;4.494;2023-02-11T03:45:44;18.97;;;10.70;;
16320;SDS011;8269;50.990;4.494;2023-02-11T03:48:15;18.70;;;10.20;;
16320;SDS011;8269;50.990;4.494;2023-02-11T03:50:44;18.43;;;10.07;;
16320;SDS011;8269;50.990;4.494;2023-02-11T03:53:11;19.23;;;10.97;;
16320;SDS011;8269;50.990;4.494;2023-02-11T03:55:39;19.50;;;10.27;;
16320;SDS011;8269;50.990;4.494;2023-02-11T03:58:06;22.67;;;10.90;;
16320;SDS011;8269;50.990;4.494;2023-02-11T04:00:37;18.67;;;10.70;;
16320;SDS011;8269;50.990;4.494;2023-02-11T04:03:05;21.07;;;10.77;;
16320;SDS011;8269;50.990;4.494;2023-02-11T04:05:31;22.33;;;10.73;;
16320;SDS011;8269;50.990;4.494;2023-02-11T04:07:57;17.80;;;10.83;;
16320;SDS011;8269;50.990;4.494;2023-02-11T04:10:23;22.23;;;10.50;;
16320;SDS011;8269;50.990;4.494;2023-02-11T04:12:48;22.40;;;11.57;;
16320;SDS011;8269;50.990;4.494;2023-02-11T04:15:14;22.30;;;11.40;;
16320;SDS011;8269;50.990;4.494;2023-02-11T04:17:40;21.27;;;11.47;;
16320;SDS011;8269;50.990;4.494;2023-02-11T04:20:06;23.50;;;12.10;;
16320;SDS011;8269;50.990;4.494;2023-02-11T04:22:32;24.80;;;11.93;;
16320;SDS011;8269;50.990;4.494;2023-02-11T04:24:58;19.60;;;11.90;;
16320;SDS011;8269;50.990;4.494;2023-02-11T04:27:24;23.33;;;11.93;;
16320;SDS011;8269;50.990;4.494;2023-02-11T04:29:50;21.07;;;12.00;;
16320;SDS011;8269;50.990;4.494;2023-02-11T04:32:15;23.20;;;12.10;;
16320;SDS011;8269;50.990;4.494;2023-02-11T04:34:41;22.67;;;12.30;;
16320;SDS011;8269;50.990;4.494;2023-02-11T04:37:07;26.40;;;13.10;;
16320;SDS011;8269;50.990;4.494;2023-02-11T04:39:32;23.90;;;12.93;;
16320;SDS011;8269;50.990;4.494;2023-02-11T04:41:58;24.23;;;13.23;;
16320;SDS011;8269;50.990;4.494;2023-02-11T04:44:24;23.90;;;12.53;;
16320;SDS011;8269;50.990;4.494;2023-02-11T04:46:50;21.17;;;13.40;;
16320;SDS011;8269;50.990;4.494;2023-02-11T04:49:15;20.17;;;12.93;;
16320;SDS011;8269;50.990;4.494;2023-02-11T04:51:41;23.47;;;12.87;;
16320;SDS011;8269;50.990;4.494;2023-02-11T04:54:09;23.40;;;13.00;;
16320;SDS011;8269;50.990;4.494;2023-02-11T04:56:35;22.27;;;13.70;;
16320;SDS011;8269;50.990;4.494;2023-02-11T04:59:01;24.83;;;14.00;;
16320;SDS011;8269;50.990;4.494;2023-02-11T05:01:27;23.40;;;15.20;;
16320;SDS011;8269;50.990;4.494;2023-02-11T05:03:52;21.40;;;13.53;;
16320;SDS011;8269;50.990;4.494;2023-02-11T05:06:18;24.77;;;14.73;;
16320;SDS011;8269;50.990;4.494;2023-02-11T05:08:44;24.40;;;13.50;;
16320;SDS011;8269;50.990;4.494;2023-02-11T05:11:17;24.67;;;13.60;;
16320;SDS011;8269;50.990;4.494;2023-02-11T05:13:44;21.33;;;14.53;;
16320;SDS011;8269;50.990;4.494;2023-02-11T05:16:11;25.00;;;14.20;;
16320;SDS011;8269;50.990;4.494;2023-02-11T05:18:38;21.00;;;13.73;;
16320;SDS011;8269;50.990;4.494;2023-02-11T05:21:08;24.60;;;14.50;;
16320;SDS011;8269;50.990;4.494;2023-02-11T05:23:35;28.17;;;14.77;;
16320;SDS011;8269;50.990;4.494;2023-02-11T05:26:02;24.03;;;14.73;;
16320;SDS011;8269;50.990;4.494;2023-02-11T05:28:29;26.70;;;15.57;;
16320;SDS011;8269;50.990;4.494;2023-02-11T05:30:55;27.23;;;15.07;;
16320;SDS011;8269;50.990;4.494;2023-02-11T05:33:21;28.03;;;15.93;;
16320;SDS011;8269;50.990;4.494;2023-02-11T05:35:46;22.60;;;15.13;;
16320;SDS011;8269;50.990;4.494;2023-02-11T05:38:12;25.00;;;16.17;;
16320;SDS011;8269;50.990;4.494;2023-02-11T05:40:38;29.57;;;15.80;;
16320;SDS011;8269;50.990;4.494;2023-02-11T05:43:04;25.53;;;16.40;;
16320;SDS011;8269;50.990;4.494;2023-02-11T05:45:30;23.27;;;15.33;;
16320;SDS011;8269;50.990;4.494;2023-02-11T05:47:56;26.93;;;15.57;;
16320;SDS011;8269;50.990;4.494;2023-02-11T05:50:22;21.00;;;15.50;;
16320;SDS011;8269;50.990;4.494;2023-02-11T05:52:49;26.17;;;16.97;;
16320;SDS011;8269;50.990;4.494;2023-02-11T05:55:15;25.60;;;16.27;;
16320;SDS011;8269;50.990;4.494;2023-02-11T05:57:41;22.83;;;16.60;;
16320;SDS011;8269;50.990;4.494;2023-02-11T06:00:07;28.33;;;17.37;;
16320;SDS011;8269;50.990;4.494;2023-02-11T06:02:34;30.37;;;17.90;;
16320;SDS011;8269;50.990;4.494;2023-02-11T06:05:00;28.97;;;16.30;;
16320;SDS011;8269;50.990;4.494;2023-02-11T06:07:26;29.00;;;17.53;;
16320;SDS011;8269;50.990;4.494;2023-02-11T06:09:51;30.63;;;18.30;;
16320;SDS011;8269;50.990;4.494;2023-02-11T06:12:17;31.27;;;18.17;;
16320;SDS011;8269;50.990;4.494;2023-02-11T06:14:43;30.30;;;18.97;;
16320;SDS011;8269;50.990;4.494;2023-02-11T06:17:08;26.97;;;18.07;;
16320;SDS011;8269;50.990;4.494;2023-02-11T06:19:34;31.73;;;19.67;;
16320;SDS011;8269;50.990;4.494;2023-02-11T06:22:00;29.73;;;17.27;;
16320;SDS011;8269;50.990;4.494;2023-02-11T06:24:25;31.03;;;19.23;;
16320;SDS011;8269;50.990;4.494;2023-02-11T06:26:51;33.67;;;18.07;;
16320;SDS011;8269;50.990;4.494;2023-02-11T06:29:17;34.80;;;20.40;;
16320;SDS011;8269;50.990;4.494;2023-02-11T06:31:42;27.57;;;18.50;;
16320;SDS011;8269;50.990;4.494;2023-02-11T06:34:08;33.73;;;19.60;;
16320;SDS011;8269;50.990;4.494;2023-02-11T06:36:37;28.83;;;19.53;;
16320;SDS011;8269;50.990;4.494;2023-02-11T06:39:04;28.97;;;19.93;;
16320;SDS011;8269;50.990;4.494;2023-02-11T06:41:29;31.67;;;21.27;;
16320;SDS011;8269;50.990;4.494;2023-02-11T06:43:57;31.20;;;19.43;;
16320;SDS011;8269;50.990;4.494;2023-02-11T06:46:23;33.53;;;21.00;;
16320;SDS011;8269;50.990;4.494;2023-02-11T06:48:48;32.57;;;19.37;;
16320;SDS011;8269;50.990;4.494;2023-02-11T06:51:14;32.40;;;20.97;;
16320;SDS011;8269;50.990;4.494;2023-02-11T06:53:41;32.17;;;20.80;;
16320;SDS011;8269;50.990;4.494;2023-02-11T06:56:11;32.00;;;21.00;;
16320;SDS011;8269;50.990;4.494;2023-02-11T06:58:45;38.13;;;21.50;;
16320;SDS011;8269;50.990;4.494;2023-02-11T07:01:12;32.73;;;21.57;;
16320;SDS011;8269;50.990;4.494;2023-02-11T07:03:40;33.73;;;20.50;;
16320;SDS011;8269;50.990;4.494;2023-02-11T07:06:07;35.63;;;22.00;;
16320;SDS011;8269;50.990;4.494;2023-02-11T07:08:37;36.97;;;22.17;;
16320;SDS011;8269;50.990;4.494;2023-02-11T07:11:08;37.27;;;22.40;;
16320;SDS011;8269;50.990;4.494;2023-02-11T07:13:38;36.47;;;23.10;;
16320;SDS011;8269;50.990;4.494;2023-02-11T07:16:07;35.50;;;23.13;;
16320;SDS011;8269;50.990;4.494;2023-02-11T07:18:34;38.27;;;23.47;;
16320;SDS011;8269;50.990;4.494;2023-02-11T07:21:07;36.50;;;22.80;;
16320;SDS011;8269;50.990;4.494;2023-02-11T07:23:35;35.57;;;23.47;;
16320;SDS011;8269;50.990;4.494;2023-02-11T07:26:02;32.40;;;22.60;;
16320;SDS011;8269;50.990;4.494;2023-02-11T07:28:28;38.47;;;24.40;;
16320;SDS011;8269;50.990;4.494;2023-02-11T07:30:54;34.10;;;22.53;;
16320;SDS011;8269;50.990;4.494;2023-02-11T07:33:20;33.93;;;22.77;;
16320;SDS011;8269;50.990;4.494;2023-02-11T07:35:45;32.87;;;24.27;;
16320;SDS011;8269;50.990;4.494;2023-02-11T07:38:12;33.93;;;24.30;;
16320;SDS011;8269;50.990;4.494;2023-02-11T07:40:38;34.83;;;24.00;;
16320;SDS011;8269;50.990;4.494;2023-02-11T07:43:03;41.00;;;27.33;;
16320;SDS011;8269;50.990;4.494;2023-02-11T07:45:29;41.30;;;25.57;;
16320;SDS011;8269;50.990;4.494;2023-02-11T07:47:55;39.70;;;25.27;;
16320;SDS011;8269;50.990;4.494;2023-02-11T07:50:26;40.83;;;26.77;;
16320;SDS011;8269;50.990;4.494;2023-02-11T07:52:55;38.13;;;26.00;;
16320;SDS011;8269;50.990;4.494;2023-02-11T07:55:21;42.00;;;25.57;;
16320;SDS011;8269;50.990;4.494;2023-02-11T07:57:47;37.37;;;25.77;;
16320;SDS011;8269;50.990;4.494;2023-02-11T08:00:15;39.87;;;25.90;;
16320;SDS011;8269;50.990;4.494;2023-02-11T08:02:42;38.10;;;25.73;;
16320;SDS011;8269;50.990;4.494;2023-02-11T08:05:08;39.50;;;26.90;;
16320;SDS011;8269;50.990;4.494;2023-02-11T08:07:33;38.50;;;25.63;;
16320;SDS011;8269;50.990;4.494;2023-02-11T08:09:59;41.70;;;27.07;;
16320;SDS011;8269;50.990;4.494;2023-02-11T08:12:24;38.93;;;25.37;;
16320;SDS011;8269;50.990;4.494;2023-02-11T08:14:50;41.20;;;27.63;;
16320;SDS011;8269;50.990;4.494;2023-02-11T08:17:16;43.53;;;27.30;;
16320;SDS011;8269;50.990;4.494;2023-02-11T08:19:41;38.87;;;25.77;;
16320;SDS011;8269;50.990;4.494;2023-02-11T08:22:08;41.53;;;27.60;;
16320;SDS011;8269;50.990;4.494;2023-02-11T08:24:34;37.83;;;27.10;;
16320;SDS011;8269;50.990;4.494;2023-02-11T08:26:59;42.33;;;27.83;;
16320;SDS011;8269;50.990;4.494;2023-02-11T08:29:25;43.10;;;28.27;;
16320;SDS011;8269;50.990;4.494;2023-02-11T08:31:52;45.30;;;29.43;;
16320;SDS011;8269;50.990;4.494;2023-02-11T08:34:18;42.83;;;28.87;;
16320;SDS011;8269;50.990;4.494;2023-02-11T08:36:46;49.77;;;29.60;;
16320;SDS011;8269;50.990;4.494;2023-02-11T08:39:19;43.60;;;29.60;;
16320;SDS011;8269;50.990;4.494;2023-02-11T08:41:48;46.57;;;30.37;;
16320;SDS011;8269;50.990;4.494;2023-02-11T08:44:16;45.37;;;29.57;;
16320;SDS011;8269;50.990;4.494;2023-02-11T08:46:44;45.70;;;30.40;;
16320;SDS011;8269;50.990;4.494;2023-02-11T08:49:12;42.57;;;29.80;;
16320;SDS011;8269;50.990;4.494;2023-02-11T08:51:43;47.00;;;30.03;;
16320;SDS011;8269;50.990;4.494;2023-02-11T08:54:09;53.43;;;31.70;;
16320;SDS011;8269;50.990;4.494;2023-02-11T08:56:35;43.97;;;30.60;;
16320;SDS011;8269;50.990;4.494;2023-02-11T08:59:05;47.47;;;32.23;;
16320;SDS011;8269;50.990;4.494;2023-02-11T09:01:31;46.03;;;30.00;;
16320;SDS011;8269;50.990;4.494;2023-02-11T09:03:57;51.10;;;31.43;;
16320;SDS011;8269;50.990;4.494;2023-02-11T09:06:23;52.87;;;33.00;;
16320;SDS011;8269;50.990;4.494;2023-02-11T09:08:51;48.40;;;30.73;;
16320;SDS011;8269;50.990;4.494;2023-02-11T09:11:19;46.67;;;31.30;;
16320;SDS011;8269;50.990;4.494;2023-02-11T09:13:48;48.60;;;32.90;;
16320;SDS011;8269;50.990;4.494;2023-02-11T09:16:24;47.20;;;31.87;;
16320;SDS011;8269;50.990;4.494;2023-02-11T09:18:52;51.40;;;31.73;;
16320;SDS011;8269;50.990;4.494;2023-02-11T09:21:19;49.83;;;33.30;;
16320;SDS011;8269;50.990;4.494;2023-02-11T09:23:45;48.23;;;33.13;;
16320;SDS011;8269;50.990;4.494;2023-02-11T09:26:33;51.80;;;32.80;;
16320;SDS011;8269;50.990;4.494;2023-02-11T09:28:59;56.90;;;32.63;;
16320;SDS011;8269;50.990;4.494;2023-02-11T09:31:26;51.37;;;33.37;;
16320;SDS011;8269;50.990;4.494;2023-02-11T09:33:53;51.53;;;35.50;;
16320;SDS011;8269;50.990;4.494;2023-02-11T09:36:23;51.73;;;34.20;;
16320;SDS011;8269;50.990;4.494;2023-02-11T09:38:50;53.10;;;34.07;;
16320;SDS011;8269;50.990;4.494;2023-02-11T09:41:23;57.07;;;34.47;;
16320;SDS011;8269;50.990;4.494;2023-02-11T09:43:56;52.13;;;34.47;;
16320;SDS011;8269;50.990;4.494;2023-02-11T09:46:26;60.20;;;35.47;;
16320;SDS011;8269;50.990;4.494;2023-02-11T09:48:57;52.90;;;34.23;;
16320;SDS011;8269;50.990;4.494;2023-02-11T09:54:16;54.67;;;34.97;;
16320;SDS011;8269;50.990;4.494;2023-02-11T09:56:44;60.73;;;36.43;;
16320;SDS011;8269;50.990;4.494;2023-02-11T09:59:12;60.10;;;36.73;;
16320;SDS011;8269;50.990;4.494;2023-02-11T10:04:28;63.27;;;39.60;;
16320;SDS011;8269;50.990;4.494;2023-02-11T10:12:59;60.73;;;35.93;;
16320;SDS011;8269;50.990;4.494;2023-02-11T10:15:58;63.20;;;38.50;;
16320;SDS011;8269;50.990;4.494;2023-02-11T10:23:41;57.27;;;38.87;;
16320;SDS011;8269;50.990;4.494;2023-02-11T10:26:11;57.97;;;37.00;;
16320;SDS011;8269;50.990;4.494;2023-02-11T10:28:40;60.07;;;38.53;;
16320;SDS011;8269;50.990;4.494;2023-02-11T10:31:08;60.53;;;40.10;;
16320;SDS011;8269;50.990;4.494;2023-02-11T10:36:27;68.50;;;39.60;;
16320;SDS011;8269;50.990;4.494;2023-02-11T10:38:54;60.87;;;39.93;;
16320;SDS011;8269;50.990;4.494;2023-02-11T10:41:22;58.50;;;36.90;;
16320;SDS011;8269;50.990;4.494;2023-02-11T10:43:51;56.33;;;37.87;;
16320;SDS011;8269;50.990;4.494;2023-02-11T10:46:19;66.27;;;38.37;;
16320;SDS011;8269;50.990;4.494;2023-02-11T10:48:50;62.87;;;39.77;;
16320;SDS011;8269;50.990;4.494;2023-02-11T10:51:23;56.30;;;37.27;;
16320;SDS011;8269;50.990;4.494;2023-02-11T10:56:48;64.67;;;38.77;;
16320;SDS011;8269;50.990;4.494;2023-02-11T10:59:29;57.23;;;38.23;;
16320;SDS011;8269;50.990;4.494;2023-02-11T11:01:56;63.43;;;37.97;;
16320;SDS011;8269;50.990;4.494;2023-02-11T11:04:41;59.70;;;39.27;;
16320;SDS011;8269;50.990;4.494;2023-02-11T11:07:12;66.87;;;41.13;;
16320;SDS011;8269;50.990;4.494;2023-02-11T11:09:59;62.10;;;38.57;;
16320;SDS011;8269;50.990;4.494;2023-02-11T11:14:57;63.10;;;40.13;;
16320;SDS011;8269;50.990;4.494;2023-02-11T11:17:23;59.97;;;40.87;;
16320;SDS011;8269;50.990;4.494;2023-02-11T11:19:53;61.70;;;40.40;;
16320;SDS011;8269;50.990;4.494;2023-02-11T11:22:19;61.47;;;40.03;;
16320;SDS011;8269;50.990;4.494;2023-02-11T11:24:46;65.27;;;39.93;;
16320;SDS011;8269;50.990;4.494;2023-02-11T11:27:22;56.07;;;38.03;;
16320;SDS011;8269;50.990;4.494;2023-02-11T11:29:50;56.00;;;38.03;;
16320;SDS011;8269;50.990;4.494;2023-02-11T11:34:49;63.07;;;39.10;;
16320;SDS011;8269;50.990;4.494;2023-02-11T11:37:20;54.30;;;37.30;;
16320;SDS011;8269;50.990;4.494;2023-02-11T11:39:55;57.50;;;37.37;;
16320;SDS011;8269;50.990;4.494;2023-02-11T11:45:54;58.67;;;37.60;;
16320;SDS011;8269;50.990;4.494;2023-02-11T11:48:26;55.07;;;36.70;;
16320;SDS011;8269;50.990;4.494;2023-02-11T11:51:04;57.27;;;38.57;;
16320;SDS011;8269;50.990;4.494;2023-02-11T11:56:10;55.00;;;36.03;;
16320;SDS011;8269;50.990;4.494;2023-02-11T11:59:01;56.77;;;38.70;;
16320;SDS011;8269;50.990;4.494;2023-02-11T12:07:16;54.00;;;37.70;;
16320;SDS011;8269;50.990;4.494;2023-02-11T12:12:54;59.20;;;37.30;;
16320;SDS011;8269;50.990;4.494;2023-02-11T12:15:33;52.57;;;36.33;;
16320;SDS011;8269;50.990;4.494;2023-02-11T12:26:30;52.67;;;36.93;;
16320;SDS011;8269;50.990;4.494;2023-02-11T12:29:19;54.90;;;36.97;;
16320;SDS011;8269;50.990;4.494;2023-02-11T12:32:03;55.00;;;37.73;;
16320;SDS011;8269;50.990;4.494;2023-02-11T12:34:41;58.87;;;38.03;;
16320;SDS011;8269;50.990;4.494;2023-02-11T12:40:14;55.73;;;38.37;;
16320;SDS011;8269;50.990;4.494;2023-02-11T12:45:37;52.37;;;36.50;;
16320;SDS011;8269;50.990;4.494;2023-02-11T12:51:09;54.80;;;38.30;;
16320;SDS011;8269;50.990;4.494;2023-02-11T12:54:41;52.23;;;35.87;;
16320;SDS011;8269;50.990;4.494;2023-02-11T13:05:26;54.70;;;37.33;;
16320;SDS011;8269;50.990;4.494;2023-02-11T13:07:50;54.90;;;35.83;;
16320;SDS011;8269;50.990;4.494;2023-02-11T13:10:37;55.53;;;38.53;;
16320;SDS011;8269;50.990;4.494;2023-02-11T13:13:10;53.77;;;37.73;;
16320;SDS011;8269;50.990;4.494;2023-02-11T13:15:49;53.83;;;37.03;;
16320;SDS011;8269;50.990;4.494;2023-02-11T13:25:57;53.57;;;37.77;;
16320;SDS011;8269;50.990;4.494;2023-02-11T13:31:10;57.27;;;38.77;;
16320;SDS011;8269;50.990;4.494;2023-02-11T13:33:38;52.20;;;38.27;;
16320;SDS011;8269;50.990;4.494;2023-02-11T13:38:33;50.47;;;38.03;;
16320;SDS011;8269;50.990;4.494;2023-02-11T13:41:04;52.53;;;38.80;;
16320;SDS011;8269;50.990;4.494;2023-02-11T13:43:31;55.53;;;39.87;;
16320;SDS011;8269;50.990;4.494;2023-02-11T13:46:02;57.47;;;39.10;;
16320;SDS011;8269;50.990;4.494;2023-02-11T13:48:30;54.97;;;38.00;;
16320;SDS011;8269;50.990;4.494;2023-02-11T13:51:10;57.07;;;40.37;;
16320;SDS011;8269;50.990;4.494;2023-02-11T13:53:48;54.97;;;39.63;;
16320;SDS011;8269;50.990;4.494;2023-02-11T14:02:02;56.90;;;40.83;;
16320;SDS011;8269;50.990;4.494;2023-02-11T14:10:53;57.97;;;40.10;;
16320;SDS011;8269;50.990;4.494;2023-02-11T14:13:26;56.07;;;39.00;;
16320;SDS011;8269;50.990;4.494;2023-02-11T14:21:13;54.03;;;39.17;;
16320;SDS011;8269;50.990;4.494;2023-02-11T14:23:40;50.90;;;38.63;;
16320;SDS011;8269;50.990;4.494;2023-02-11T14:28:45;54.47;;;40.47;;
16320;SDS011;8269;50.990;4.494;2023-02-11T14:31:20;60.63;;;41.23;;
16320;SDS011;8269;50.990;4.494;2023-02-11T14:34:13;58.00;;;41.00;;
16320;SDS011;8269;50.990;4.494;2023-02-11T14:36:56;56.77;;;40.20;;
16320;SDS011;8269;50.990;4.494;2023-02-11T14:42:09;54.37;;;41.17;;
16320;SDS011;8269;50.990;4.494;2023-02-11T14:47:59;53.07;;;41.20;;
16320;SDS011;8269;50.990;4.494;2023-02-11T14:50:33;60.90;;;42.57;;
16320;SDS011;8269;50.990;4.494;2023-02-11T14:53:01;55.57;;;42.30;;
16320;SDS011;8269;50.990;4.494;2023-02-11T14:55:31;58.33;;;42.60;;
16320;SDS011;8269;50.990;4.494;2023-02-11T14:58:24;56.83;;;42.77;;
16320;SDS011;8269;50.990;4.494;2023-02-11T15:00:54;56.63;;;42.87;;
16320;SDS011;8269;50.990;4.494;2023-02-11T15:03:25;55.10;;;40.93;;
16320;SDS011;8269;50.990;4.494;2023-02-11T15:08:41;54.13;;;43.20;;
16320;SDS011;8269;50.990;4.494;2023-02-11T15:11:09;57.10;;;44.27;;
16320;SDS011;8269;50.990;4.494;2023-02-11T15:14:04;54.63;;;42.90;;
16320;SDS011;8269;50.990;4.494;2023-02-11T15:21:45;57.30;;;43.63;;
16320;SDS011;8269;50.990;4.494;2023-02-11T15:24:45;60.00;;;44.10;;
16320;SDS011;8269;50.990;4.494;2023-02-11T15:27:11;57.40;;;43.33;;
16320;SDS011;8269;50.990;4.494;2023-02-11T15:29:43;55.27;;;43.57;;
16320;SDS011;8269;50.990;4.494;2023-02-11T15:32:25;54.73;;;41.57;;
16320;SDS011;8269;50.990;4.494;2023-02-11T15:34:52;57.70;;;43.83;;
16320;SDS011;8269;50.990;4.494;2023-02-11T15:37:24;54.33;;;42.17;;
16320;SDS011;8269;50.990;4.494;2023-02-11T15:39:51;54.93;;;42.97;;
16320;SDS011;8269;50.990;4.494;2023-02-11T15:42:18;61.00;;;44.17;;
16320;SDS011;8269;50.990;4.494;2023-02-11T15:44:45;59.23;;;44.53;;
16320;SDS011;8269;50.990;4.494;2023-02-11T15:47:12;55.67;;;41.83;;
16320;SDS011;8269;50.990;4.494;2023-02-11T15:49:45;58.73;;;43.73;;
16320;SDS011;8269;50.990;4.494;2023-02-11T15:52:14;54.37;;;42.63;;
16320;SDS011;8269;50.990;4.494;2023-02-11T15:54:46;58.77;;;44.30;;
16320;SDS011;8269;50.990;4.494;2023-02-11T15:57:17;63.30;;;47.67;;
16320;SDS011;8269;50.990;4.494;2023-02-11T15:59:45;63.87;;;49.07;;
16320;SDS011;8269;50.990;4.494;2023-02-11T16:02:33;61.07;;;49.10;;
16320;SDS011;8269;50.990;4.494;2023-02-11T16:05:05;57.93;;;45.83;;
16320;SDS011;8269;50.990;4.494;2023-02-11T16:07:42;56.80;;;44.60;;
16320;SDS011;8269;50.990;4.494;2023-02-11T16:12:54;60.60;;;44.90;;
16320;SDS011;8269;50.990;4.494;2023-02-11T16:15:40;58.83;;;44.80;;
16320;SDS011;8269;50.990;4.494;2023-02-11T16:20:48;59.30;;;45.20;;
16320;SDS011;8269;50.990;4.494;2023-02-11T16:23:27;58.97;;;45.07;;
16320;SDS011;8269;50.990;4.494;2023-02-11T16:25:58;59.40;;;44.27;;
16320;SDS011;8269;50.990;4.494;2023-02-11T16:28:25;57.63;;;46.03;;
16320;SDS011;8269;50.990;4.494;2023-02-11T16:30:52;60.90;;;47.43;;
16320;SDS011;8269;50.990;4.494;2023-02-11T16:33:18;60.67;;;46.83;;
16320;SDS011;8269;50.990;4.494;2023-02-11T16:35:45;61.13;;;46.63;;
16320;SDS011;8269;50.990;4.494;2023-02-11T16:38:12;57.70;;;45.07;;
16320;SDS011;8269;50.990;4.494;2023-02-11T16:40:38;57.30;;;45.00;;
16320;SDS011;8269;50.990;4.494;2023-02-11T16:43:06;57.43;;;44.87;;
16320;SDS011;8269;50.990;4.494;2023-02-11T16:45:35;59.03;;;45.87;;
16320;SDS011;8269;50.990;4.494;2023-02-11T16:48:01;59.13;;;47.13;;
16320;SDS011;8269;50.990;4.494;2023-02-11T16:50:27;59.30;;;47.33;;
16320;SDS011;8269;50.990;4.494;2023-02-11T16:52:54;57.40;;;46.77;;
16320;SDS011;8269;50.990;4.494;2023-02-11T16:55:20;60.97;;;46.37;;
16320;SDS011;8269;50.990;4.494;2023-02-11T16:57:46;67.17;;;49.23;;
16320;SDS011;8269;50.990;4.494;2023-02-11T17:00:14;63.13;;;48.00;;
16320;SDS011;8269;50.990;4.494;2023-02-11T17:02:40;69.03;;;54.00;;
16320;SDS011;8269;50.990;4.494;2023-02-11T17:05:10;74.17;;;55.13;;
16320;SDS011;8269;50.990;4.494;2023-02-11T17:07:41;76.47;;;56.33;;
16320;SDS011;8269;50.990;4.494;2023-02-11T17:10:20;70.50;;;54.20;;
16320;SDS011;8269;50.990;4.494;2023-02-11T17:12:48;70.37;;;50.60;;
16320;SDS011;8269;50.990;4.494;2023-02-11T17:15:14;64.33;;;49.93;;
16320;SDS011;8269;50.990;4.494;2023-02-11T17:17:40;69.43;;;52.47;;
16320;SDS011;8269;50.990;4.494;2023-02-11T17:20:09;70.63;;;54.07;;
16320;SDS011;8269;50.990;4.494;2023-02-11T17:22:36;74.83;;;55.27;;
16320;SDS011;8269;50.990;4.494;2023-02-11T17:25:02;70.87;;;53.73;;
16320;SDS011;8269;50.990;4.494;2023-02-11T17:27:28;73.00;;;53.63;;
16320;SDS011;8269;50.990;4.494;2023-02-11T17:29:54;68.20;;;50.17;;
16320;SDS011;8269;50.990;4.494;2023-02-11T17:32:20;66.00;;;50.77;;